Delaware — WDD4172 — position and weather

sailwx.info

Track history (hours):
 
Tides and Currents Weather Stations Pressure Air Temp Water Temp Dewpoint Dewpoint Depression Visibility Wind Speed Wind Dir Waves Ship Positions

Delaware

Owner: Overfalls Leasing LLC, Lewes, DE. More information available from US FCC via Universal Licensing System and Coast Guard Vessel Documentation Center.

Last reported at 2015-Mar-01 06:09 UTC. Time now 2015-Mar-06 16:08 UTC.
Position N 38°37' W 075°04'.

Type: Pilot. MMSI: 367141210.

Date/timePositionNaut miles runAvg speedWind from/ knotsBaromVisibWave heightAir tempDewpointWater temp
2015-Mar-01 06:09N 38°37' W 075°04'811.9
2015-Mar-01 05:27N 38°38' W 074°53'7 8.1
2015-Mar-01 04:33N 38°43' W 075°00'5 0.6
2015-Feb-28 20:33N 38°38' W 075°03'10 9.9
2015-Feb-28 19:34N 38°48' W 075°07'1 0.7
2015-Feb-28 18:33N 38°47' W 075°07'0 0.0
2015-Feb-28 17:33N 38°47' W 075°07'0 0.0
2015-Feb-28 16:33N 38°47' W 075°07'0 0.0
2015-Feb-28 15:33N 38°47' W 075°07'0 0.0
2015-Feb-28 14:33N 38°47' W 075°07'0 0.0
2015-Feb-28 13:33N 38°47' W 075°07'0 0.0
2015-Feb-28 12:33N 38°47' W 075°07'0 0.0
2015-Feb-28 11:33N 38°47' W 075°07'0 0.0
2015-Feb-28 10:33N 38°47' W 075°07'0 0.0
2015-Feb-28 09:33N 38°47' W 075°07'0 0.0
2015-Feb-28 08:33N 38°47' W 075°07'0 0.0
2015-Feb-28 07:33N 38°47' W 075°07'0 0.0
2015-Feb-28 06:33N 38°47' W 075°07'0 0.0
2015-Feb-28 05:33N 38°47' W 075°07'0 0.0
2015-Feb-28 04:33N 38°47' W 075°07'0 0.0
2015-Feb-28 03:33N 38°47' W 075°07'0 0.0
2015-Feb-28 02:33N 38°47' W 075°07'0 0.0
2015-Feb-28 01:33N 38°47' W 075°07'0 0.0
2015-Feb-28 00:33N 38°47' W 075°07'0 0.0
2015-Feb-27 23:33N 38°47' W 075°07'0 0.0
2015-Feb-27 22:33N 38°47' W 075°07'0 0.0
2015-Feb-27 21:33N 38°47' W 075°07'0 0.0
2015-Feb-27 20:33N 38°47' W 075°07'0 0.0
2015-Feb-27 19:33N 38°47' W 075°07'0 0.0
2015-Feb-27 18:33N 38°47' W 075°07'0 0.0
2015-Feb-27 17:33N 38°47' W 075°07'0 0.0
2015-Feb-27 16:33N 38°47' W 075°07'0 0.0
2015-Feb-27 15:33N 38°47' W 075°07'0 0.0
2015-Feb-27 14:33N 38°47' W 075°07'0 0.0
2015-Feb-27 13:33N 38°47' W 075°07'0 0.0
2015-Feb-27 12:33N 38°47' W 075°07'0 0.0
2015-Feb-27 11:33N 38°47' W 075°07'0 0.0
2015-Feb-27 10:33N 38°47' W 075°07'0 0.0
2015-Feb-27 09:33N 38°47' W 075°07'0 0.0
2015-Feb-27 08:33N 38°47' W 075°07'0 0.0
2015-Feb-27 07:33N 38°47' W 075°07'0 0.0
2015-Feb-27 06:33N 38°47' W 075°07'0 0.0
2015-Feb-27 05:33N 38°47' W 075°07'0 0.0
2015-Feb-27 04:33N 38°47' W 075°07'0 0.0
2015-Feb-27 03:33N 38°47' W 075°07'0 0.0
2015-Feb-27 02:33N 38°47' W 075°07'0 0.0
2015-Feb-27 01:33N 38°47' W 075°07'0 0.0
2015-Feb-27 00:33N 38°47' W 075°07'0 0.0
2015-Feb-26 23:33N 38°47' W 075°07'0 0.0
2015-Feb-26 22:33N 38°47' W 075°07'0 0.0
2015-Feb-26 21:33N 38°47' W 075°07'0 0.0
2015-Feb-26 20:33N 38°47' W 075°07'0 0.0
2015-Feb-26 19:33N 38°47' W 075°07'0 0.0
2015-Feb-26 18:33N 38°47' W 075°07'0 0.0
2015-Feb-26 17:33N 38°47' W 075°07'0 0.0
2015-Feb-26 16:33N 38°47' W 075°07'0 0.0
2015-Feb-26 15:33N 38°47' W 075°07'0 0.0
2015-Feb-26 14:33N 38°47' W 075°07'0 0.0
2015-Feb-26 13:33N 38°47' W 075°07'0 0.0
2015-Feb-26 12:33N 38°47' W 075°07'0 0.0
2015-Feb-26 11:33N 38°47' W 075°07'0 0.0
2015-Feb-26 10:33N 38°47' W 075°07'0 0.0
2015-Feb-26 09:33N 38°47' W 075°07'0 0.0
2015-Feb-26 08:33N 38°47' W 075°07'0 0.0
2015-Feb-26 07:31N 38°47' W 075°07'0 0.0
2015-Feb-26 05:33N 38°47' W 075°07'0 0.0
2015-Feb-26 04:33N 38°47' W 075°07'0 0.0
2015-Feb-26 03:24N 38°47' W 075°07'0 0.0
2015-Feb-26 02:33N 38°47' W 075°07'0 0.0
2015-Feb-26 01:33N 38°47' W 075°07'0 0.0
2015-Feb-26 00:33N 38°47' W 075°07'0 0.0
2015-Feb-25 23:33N 38°47' W 075°07'0 0.0
2015-Feb-25 22:33N 38°47' W 075°07'0 0.0
2015-Feb-25 21:33N 38°47' W 075°07'0 0.0
2015-Feb-25 20:33N 38°47' W 075°07'2 2.4
2015-Feb-25 19:34N 38°48' W 075°10'0 0.3
2015-Feb-25 18:32N 38°47' W 075°10'0 0.1
2015-Feb-25 17:34N 38°47' W 075°10'0 0.1
2015-Feb-25 16:33N 38°48' W 075°10'0 0.0
2015-Feb-25 14:33N 38°48' W 075°10'0 0.0
2015-Feb-25 13:34N 38°48' W 075°10'0 0.0
2015-Feb-25 12:34N 38°48' W 075°10'0 0.0
2015-Feb-25 11:34N 38°48' W 075°10'0 0.0
2015-Feb-25 10:34N 38°48' W 075°10'0 0.0
2015-Feb-25 09:34N 38°48' W 075°10'0 0.0
2015-Feb-25 08:34N 38°48' W 075°10'0 0.0
2015-Feb-25 07:34N 38°48' W 075°10'0 0.0
2015-Feb-25 06:34N 38°48' W 075°10'0 0.0
2015-Feb-25 05:34N 38°48' W 075°10'0 0.0
2015-Feb-25 04:33N 38°48' W 075°10'0 0.0
2015-Feb-25 03:34N 38°48' W 075°10'0 0.0
2015-Feb-25 02:34N 38°48' W 075°10'0 0.0
2015-Feb-25 01:33N 38°48' W 075°10'0 0.0
2015-Feb-25 00:34N 38°48' W 075°10'0 0.0
2015-Feb-24 23:33N 38°48' W 075°10'0 0.0
2015-Feb-24 22:34N 38°48' W 075°10'2 2.3
2015-Feb-24 21:33N 38°47' W 075°07'0 0.0
2015-Feb-24 20:33N 38°47' W 075°07'0 0.0
2015-Feb-24 19:33N 38°47' W 075°07'0 0.0
2015-Feb-24 18:33N 38°47' W 075°07'0 0.4
2015-Feb-24 17:33N 38°47' W 075°07'1 0.5
2015-Feb-24 16:12N 38°48' W 075°07'  
Track history (hours):
 
Tides and Currents Weather Stations Pressure Air Temp Water Temp Dewpoint Dewpoint Depression Visibility Wind Speed Wind Dir Waves Ship Positions

Delaware

Owner: Overfalls Leasing LLC, Lewes, DE. More information available from US FCC via Universal Licensing System and Coast Guard Vessel Documentation Center.

Last reported at 2015-Mar-01 06:09 UTC. Time now 2015-Mar-06 16:08 UTC.
Position N 38°37' W 075°04'.

Type: Pilot. MMSI: 367141210.

Date/timePositionNaut miles runAvg speedWind from/ knotsBaromVisibWave heightAir tempDewpointWater temp
2015-Mar-01 06:09N 38°37' W 075°04'811.9
2015-Mar-01 05:27N 38°38' W 074°53'7 8.1
2015-Mar-01 04:33N 38°43' W 075°00'5 0.6
2015-Feb-28 20:33N 38°38' W 075°03'10 9.9
2015-Feb-28 19:34N 38°48' W 075°07'1 0.7
2015-Feb-28 18:33N 38°47' W 075°07'0 0.0
2015-Feb-28 17:33N 38°47' W 075°07'0 0.0
2015-Feb-28 16:33N 38°47' W 075°07'0 0.0
2015-Feb-28 15:33N 38°47' W 075°07'0 0.0
2015-Feb-28 14:33N 38°47' W 075°07'0 0.0
2015-Feb-28 13:33N 38°47' W 075°07'0 0.0
2015-Feb-28 12:33N 38°47' W 075°07'0 0.0
2015-Feb-28 11:33N 38°47' W 075°07'0 0.0
2015-Feb-28 10:33N 38°47' W 075°07'0 0.0
2015-Feb-28 09:33N 38°47' W 075°07'0 0.0
2015-Feb-28 08:33N 38°47' W 075°07'0 0.0
2015-Feb-28 07:33N 38°47' W 075°07'0 0.0
2015-Feb-28 06:33N 38°47' W 075°07'0 0.0
2015-Feb-28 05:33N 38°47' W 075°07'0 0.0
2015-Feb-28 04:33N 38°47' W 075°07'0 0.0
2015-Feb-28 03:33N 38°47' W 075°07'0 0.0
2015-Feb-28 02:33N 38°47' W 075°07'0 0.0
2015-Feb-28 01:33N 38°47' W 075°07'0 0.0
2015-Feb-28 00:33N 38°47' W 075°07'0 0.0
2015-Feb-27 23:33N 38°47' W 075°07'0 0.0
2015-Feb-27 22:33N 38°47' W 075°07'0 0.0
2015-Feb-27 21:33N 38°47' W 075°07'0 0.0
2015-Feb-27 20:33N 38°47' W 075°07'0 0.0
2015-Feb-27 19:33N 38°47' W 075°07'0 0.0
2015-Feb-27 18:33N 38°47' W 075°07'0 0.0
2015-Feb-27 17:33N 38°47' W 075°07'0 0.0
2015-Feb-27 16:33N 38°47' W 075°07'0 0.0
2015-Feb-27 15:33N 38°47' W 075°07'0 0.0
2015-Feb-27 14:33N 38°47' W 075°07'0 0.0
2015-Feb-27 13:33N 38°47' W 075°07'0 0.0
2015-Feb-27 12:33N 38°47' W 075°07'0 0.0
2015-Feb-27 11:33N 38°47' W 075°07'0 0.0
2015-Feb-27 10:33N 38°47' W 075°07'0 0.0
2015-Feb-27 09:33N 38°47' W 075°07'0 0.0
2015-Feb-27 08:33N 38°47' W 075°07'0 0.0
2015-Feb-27 07:33N 38°47' W 075°07'0 0.0
2015-Feb-27 06:33N 38°47' W 075°07'0 0.0
2015-Feb-27 05:33N 38°47' W 075°07'0 0.0
2015-Feb-27 04:33N 38°47' W 075°07'0 0.0
2015-Feb-27 03:33N 38°47' W 075°07'0 0.0
2015-Feb-27 02:33N 38°47' W 075°07'0 0.0
2015-Feb-27 01:33N 38°47' W 075°07'0 0.0
2015-Feb-27 00:33N 38°47' W 075°07'0 0.0
2015-Feb-26 23:33N 38°47' W 075°07'0 0.0
2015-Feb-26 22:33N 38°47' W 075°07'0 0.0
2015-Feb-26 21:33N 38°47' W 075°07'0 0.0
2015-Feb-26 20:33N 38°47' W 075°07'0 0.0
2015-Feb-26 19:33N 38°47' W 075°07'0 0.0
2015-Feb-26 18:33N 38°47' W 075°07'0 0.0
2015-Feb-26 17:33N 38°47' W 075°07'0 0.0
2015-Feb-26 16:33N 38°47' W 075°07'0 0.0
2015-Feb-26 15:33N 38°47' W 075°07'0 0.0
2015-Feb-26 14:33N 38°47' W 075°07'0 0.0
2015-Feb-26 13:33N 38°47' W 075°07'0 0.0
2015-Feb-26 12:33N 38°47' W 075°07'0 0.0
2015-Feb-26 11:33N 38°47' W 075°07'0 0.0
2015-Feb-26 10:33N 38°47' W 075°07'0 0.0
2015-Feb-26 09:33N 38°47' W 075°07'0 0.0
2015-Feb-26 08:33N 38°47' W 075°07'0 0.0
2015-Feb-26 07:31N 38°47' W 075°07'0 0.0
2015-Feb-26 05:33N 38°47' W 075°07'0 0.0
2015-Feb-26 04:33N 38°47' W 075°07'0 0.0
2015-Feb-26 03:24N 38°47' W 075°07'0 0.0
2015-Feb-26 02:33N 38°47' W 075°07'0 0.0
2015-Feb-26 01:33N 38°47' W 075°07'0 0.0
2015-Feb-26 00:33N 38°47' W 075°07'0 0.0
2015-Feb-25 23:33N 38°47' W 075°07'0 0.0
2015-Feb-25 22:33N 38°47' W 075°07'0 0.0
2015-Feb-25 21:33N 38°47' W 075°07'0 0.0
2015-Feb-25 20:33N 38°47' W 075°07'2 2.4
2015-Feb-25 19:34N 38°48' W 075°10'0 0.3
2015-Feb-25 18:32N 38°47' W 075°10'0 0.1
2015-Feb-25 17:34N 38°47' W 075°10'0 0.1
2015-Feb-25 16:33N 38°48' W 075°10'0 0.0
2015-Feb-25 14:33N 38°48' W 075°10'0 0.0
2015-Feb-25 13:34N 38°48' W 075°10'0 0.0
2015-Feb-25 12:34N 38°48' W 075°10'0 0.0
2015-Feb-25 11:34N 38°48' W 075°10'0 0.0
2015-Feb-25 10:34N 38°48' W 075°10'0 0.0
2015-Feb-25 09:34N 38°48' W 075°10'0 0.0
2015-Feb-25 08:34N 38°48' W 075°10'0 0.0
2015-Feb-25 07:34N 38°48' W 075°10'0 0.0
2015-Feb-25 06:34N 38°48' W 075°10'0 0.0
2015-Feb-25 05:34N 38°48' W 075°10'0 0.0
2015-Feb-25 04:33N 38°48' W 075°10'0 0.0
2015-Feb-25 03:34N 38°48' W 075°10'0 0.0
2015-Feb-25 02:34N 38°48' W 075°10'0 0.0
2015-Feb-25 01:33N 38°48' W 075°10'0 0.0
2015-Feb-25 00:34N 38°48' W 075°10'0 0.0
2015-Feb-24 23:33N 38°48' W 075°10'0 0.0
2015-Feb-24 22:34N 38°48' W 075°10'2 2.3
2015-Feb-24 21:33N 38°47' W 075°07'0 0.0
2015-Feb-24 20:33N 38°47' W 075°07'0 0.0
2015-Feb-24 19:33N 38°47' W 075°07'0 0.0
2015-Feb-24 18:33N 38°47' W 075°07'0 0.4
2015-Feb-24 17:33N 38°47' W 075°07'1 0.5
2015-Feb-24 16:12N 38°48' W 075°07'  

Dump ship's entire track history